Time;durP1;ratioP1;P1;durP2;ratioP2;P2;SDS_P1;SDS_P2;PMS_P1;PMS_P2;Temp;Humidity;BMP_temperature;BMP_pressure;BME280_temperature;BME280_humidity;BME280_pressure;Samples;Min_cycle;Max_cycle;Signal;HPM_P1;HPM_P2
2021/10/26 00:02:01;;;;;;;8.93;2.55;;;10.40;92.50;;;;;;5041685;28;20121;-60
2021/10/26 00:04:28;;;;;;;9.38;2.00;;;10.50;92.50;;;;;;5037789;28;20088;-60
2021/10/26 00:06:54;;;;;;;7.53;1.98;;;10.40;92.50;;;;;;5044704;28;20083;-61
2021/10/26 00:09:22;;;;;;;6.38;1.80;;;10.40;92.60;;;;;;5046165;28;20045;-60
2021/10/26 00:11:49;;;;;;;10.70;2.40;;;10.40;92.60;;;;;;5044384;28;20049;-61
2021/10/26 00:14:15;;;;;;;9.30;1.70;;;10.40;92.60;;;;;;5045142;28;20640;-61
2021/10/26 00:16:42;;;;;;;8.32;2.30;;;10.40;92.60;;;;;;5041202;28;20052;-61
2021/10/26 00:19:09;;;;;;;10.02;2.45;;;10.40;92.60;;;;;;5042453;28;20042;-61
2021/10/26 00:21:36;;;;;;;7.80;2.00;;;10.40;92.60;;;;;;5043885;28;20073;-62
2021/10/26 00:24:03;;;;;;;7.13;2.28;;;10.40;92.70;;;;;;5045529;28;20044;-61
2021/10/26 00:26:30;;;;;;;10.80;2.22;;;10.40;92.70;;;;;;5046979;28;20128;-61
2021/10/26 00:28:57;;;;;;;14.05;2.63;;;10.40;92.70;;;;;;5037680;28;20891;-60
2021/10/26 00:31:24;;;;;;;6.78;2.45;;;10.40;92.70;;;;;;5047967;28;20036;-60
2021/10/26 00:33:52;;;;;;;7.53;2.17;;;10.40;92.80;;;;;;5045396;28;20049;-60
2021/10/26 00:36:18;;;;;;;8.30;2.78;;;10.40;92.80;;;;;;5045715;28;20102;-60
2021/10/26 00:38:45;;;;;;;6.53;2.03;;;10.30;92.80;;;;;;5046749;28;20085;-61
2021/10/26 00:41:12;;;;;;;11.00;2.55;;;10.30;93.00;;;;;;5044610;28;20598;-59
2021/10/26 00:43:39;;;;;;;7.50;2.88;;;10.30;92.90;;;;;;5042075;28;20560;-60
2021/10/26 00:46:07;;;;;;;10.43;2.22;;;10.30;92.90;;;;;;5043728;28;20500;-61
2021/10/26 00:48:34;;;;;;;8.52;2.15;;;10.30;92.90;;;;;;5040179;28;20083;-61
2021/10/26 00:51:00;;;;;;;20.73;3.38;;;10.30;92.90;;;;;;5043150;28;20084;-60
2021/10/26 00:53:27;;;;;;;9.52;2.10;;;10.30;92.90;;;;;;5037680;28;20053;-61
2021/10/26 00:55:54;;;;;;;5.47;2.15;;;10.40;93.00;;;;;;5044709;28;20419;-61
2021/10/26 00:58:21;;;;;;;5.75;2.53;;;10.30;92.90;;;;;;5033844;28;20080;-62
2021/10/26 01:00:48;;;;;;;12.70;2.47;;;10.30;93.00;;;;;;5048541;28;20095;-60
2021/10/26 01:03:15;;;;;;;7.28;2.20;;;10.30;93.00;;;;;;5040181;28;20044;-61
2021/10/26 01:05:42;;;;;;;7.53;2.20;;;10.30;93.00;;;;;;5042906;28;20083;-61
2021/10/26 01:08:08;;;;;;;6.93;2.10;;;10.30;93.10;;;;;;5043820;28;20083;-61
2021/10/26 01:10:35;;;;;;;5.97;2.25;;;10.30;93.20;;;;;;5046853;28;20056;-61
2021/10/26 01:13:03;;;;;;;4.00;1.65;;;10.20;93.20;;;;;;5040066;28;20406;-60
2021/10/26 01:15:30;;;;;;;12.68;1.92;;;10.20;93.30;;;;;;5044967;28;20053;-60
2021/10/26 01:17:57;;;;;;;7.63;2.33;;;10.30;93.40;;;;;;5050659;28;20118;-60
2021/10/26 01:20:23;;;;;;;10.60;2.38;;;10.30;93.40;;;;;;5045758;28;20072;-63
2021/10/26 01:22:50;;;;;;;10.70;2.15;;;10.40;93.50;;;;;;5046472;28;20081;-60
2021/10/26 01:25:17;;;;;;;9.82;2.05;;;10.40;93.40;;;;;;5043740;28;20087;-61
2021/10/26 01:27:47;;;;;;;8.15;1.70;;;10.40;93.30;;;;;;5046582;28;20080;-60
2021/10/26 01:30:15;;;;;;;6.40;1.55;;;10.40;93.30;;;;;;5048418;28;20045;-61
2021/10/26 01:32:41;;;;;;;6.57;1.48;;;10.50;93.30;;;;;;5050993;28;20074;-61
2021/10/26 01:35:08;;;;;;;7.70;1.27;;;10.50;93.20;;;;;;5044677;28;20073;-61
2021/10/26 01:37:35;;;;;;;3.80;1.60;;;10.50;93.20;;;;;;5051067;28;20156;-63
2021/10/26 01:40:02;;;;;;;6.40;1.95;;;10.60;93.20;;;;;;5050342;28;20077;-60
2021/10/26 01:42:29;;;;;;;8.15;1.90;;;10.60;93.20;;;;;;5050756;28;20488;-61
2021/10/26 01:44:56;;;;;;;6.72;2.03;;;10.60;93.10;;;;;;5046634;28;20107;-63
2021/10/26 01:47:23;;;;;;;4.90;1.40;;;10.70;93.10;;;;;;5047352;28;20122;-60
2021/10/26 01:49:50;;;;;;;4.97;1.83;;;10.60;93.10;;;;;;5047091;28;20102;-60
2021/10/26 01:52:17;;;;;;;5.43;1.80;;;10.60;93.10;;;;;;5043220;28;20103;-60
2021/10/26 01:54:44;;;;;;;4.97;1.40;;;10.60;93.10;;;;;;5045182;28;20053;-61
2021/10/26 01:57:11;;;;;;;7.47;1.50;;;10.60;93.10;;;;;;5047218;28;20130;-61
2021/10/26 01:59:37;;;;;;;8.07;1.10;;;10.60;93.10;;;;;;5047390;28;20111;-60
2021/10/26 02:02:04;;;;;;;10.70;2.03;;;10.70;93.10;;;;;;5049113;28;20041;-61
2021/10/26 02:04:31;;;;;;;5.00;1.83;;;10.60;93.00;;;;;;5044511;28;20053;-60
2021/10/26 02:06:58;;;;;;;4.72;1.73;;;10.60;93.00;;;;;;5039242;28;20094;-61
2021/10/26 02:09:25;;;;;;;4.78;1.90;;;10.60;93.00;;;;;;5046755;28;20041;-61
2021/10/26 02:11:51;;;;;;;10.55;2.15;;;10.70;93.00;;;;;;5048200;28;20131;-61
2021/10/26 02:14:18;;;;;;;7.28;2.20;;;10.70;93.00;;;;;;5051017;28;20071;-59
2021/10/26 02:16:45;;;;;;;15.77;1.90;;;10.60;93.00;;;;;;5044759;28;20107;-60
2021/10/26 02:19:12;;;;;;;7.28;1.70;;;10.50;93.10;;;;;;5044972;28;20049;-61
2021/10/26 02:21:39;;;;;;;6.15;1.65;;;10.50;93.20;;;;;;5046993;28;20080;-61
2021/10/26 02:24:05;;;;;;;9.90;2.17;;;10.50;93.30;;;;;;5049511;28;20052;-62
2021/10/26 02:26:32;;;;;;;8.00;1.50;;;10.50;93.30;;;;;;5041587;28;20073;-60
2021/10/26 02:28:59;;;;;;;7.00;1.80;;;10.60;93.40;;;;;;5050766;28;20458;-59
2021/10/26 02:31:26;;;;;;;5.05;1.35;;;10.60;93.40;;;;;;5043725;28;20132;-61
2021/10/26 02:33:53;;;;;;;7.95;1.65;;;10.50;93.30;;;;;;5045064;28;20455;-60
2021/10/26 02:36:20;;;;;;;8.48;2.15;;;10.50;93.40;;;;;;5044310;28;20068;-61
2021/10/26 02:38:46;;;;;;;2.95;1.33;;;10.60;93.40;;;;;;5045766;28;20091;-61
2021/10/26 02:41:13;;;;;;;13.80;2.65;;;10.60;93.50;;;;;;5046672;28;20048;-60
2021/10/26 02:43:40;;;;;;;8.88;1.80;;;10.60;93.60;;;;;;5042278;28;20057;-60
2021/10/26 02:46:08;;;;;;;5.32;1.25;;;10.60;93.60;;;;;;5046664;28;20049;-60
2021/10/26 02:48:35;;;;;;;6.82;1.70;;;10.60;93.60;;;;;;5045517;28;20663;-60
2021/10/26 02:51:02;;;;;;;9.45;1.50;;;10.70;93.70;;;;;;5046212;28;20076;-60
2021/10/26 02:53:29;;;;;;;11.35;2.95;;;10.70;93.70;;;;;;5045764;28;20095;-61
2021/10/26 02:55:55;;;;;;;10.15;1.77;;;10.80;93.80;;;;;;5046414;28;20076;-61
2021/10/26 02:58:22;;;;;;;7.57;1.95;;;10.90;93.90;;;;;;5046433;28;20041;-60
2021/10/26 03:00:49;;;;;;;13.30;2.20;;;10.90;94.00;;;;;;5048782;28;20068;-60
2021/10/26 03:03:16;;;;;;;10.18;1.40;;;10.90;94.10;;;;;;5046820;28;20051;-61
2021/10/26 03:05:43;;;;;;;7.28;1.13;;;11.00;94.10;;;;;;5047273;28;20128;-61
2021/10/26 03:08:10;;;;;;;7.63;1.70;;;11.00;94.10;;;;;;5043284;28;20125;-60
2021/10/26 03:10:38;;;;;;;4.57;1.10;;;11.00;94.10;;;;;;5047452;28;20052;-61
2021/10/26 03:13:04;;;;;;;5.97;1.52;;;11.00;94.10;;;;;;5045329;28;20045;-60
2021/10/26 03:15:31;;;;;;;7.32;1.42;;;11.10;94.10;;;;;;5047274;28;20072;-61
2021/10/26 03:17:58;;;;;;;8.82;1.33;;;11.20;94.10;;;;;;5045304;28;20558;-60
2021/10/26 03:20:25;;;;;;;7.15;1.38;;;11.20;94.20;;;;;;5048015;28;20068;-61
2021/10/26 03:22:51;;;;;;;6.22;1.60;;;11.20;94.30;;;;;;5042533;28;20069;-61
2021/10/26 03:25:18;;;;;;;6.05;1.17;;;11.30;94.30;;;;;;5046506;28;20071;-61
2021/10/26 03:27:45;;;;;;;4.20;1.17;;;11.30;94.30;;;;;;5046721;28;20049;-60
2021/10/26 03:30:12;;;;;;;11.07;1.88;;;11.40;94.60;;;;;;5044028;28;20463;-60
2021/10/26 03:32:40;;;;;;;6.60;1.23;;;11.30;94.40;;;;;;5042847;28;20072;-61
2021/10/26 03:35:07;;;;;;;14.63;1.27;;;11.30;94.50;;;;;;5047371;28;20106;-62
2021/10/26 03:37:35;;;;;;;14.32;3.05;;;11.30;94.60;;;;;;5043833;28;20183;-61
2021/10/26 03:40:04;;;;;;;9.55;1.48;;;11.30;94.60;;;;;;5046129;28;20077;-61
2021/10/26 03:42:31;;;;;;;9.13;1.58;;;11.30;94.60;;;;;;5045291;28;20452;-61
2021/10/26 03:44:58;;;;;;;10.60;1.80;;;11.30;94.60;;;;;;5046928;28;20053;-60
2021/10/26 03:47:24;;;;;;;5.15;1.40;;;11.30;94.70;;;;;;5044595;28;20113;-61
2021/10/26 03:49:51;;;;;;;2.17;1.20;;;11.30;94.60;;;;;;5048752;28;20098;-61
2021/10/26 03:52:18;;;;;;;8.73;2.40;;;11.40;94.70;;;;;;5044715;28;20048;-60
2021/10/26 03:54:45;;;;;;;9.48;1.52;;;11.40;94.70;;;;;;5048988;28;20045;-60
2021/10/26 03:57:12;;;;;;;5.68;1.65;;;11.30;94.80;;;;;;5045954;28;20103;-61
2021/10/26 03:59:40;;;;;;;11.23;2.20;;;11.30;94.80;;;;;;5040096;28;20072;-60
2021/10/26 04:02:19;;;;;;;9.63;1.98;;;11.30;94.90;;;;;;5046614;28;20195;-60
2021/10/26 04:04:46;;;;;;;7.72;2.47;;;11.30;95.00;;;;;;5038912;28;20503;-60
2021/10/26 04:07:13;;;;;;;7.60;1.63;;;11.30;95.00;;;;;;5044520;28;20549;-60
2021/10/26 04:09:53;;;;;;;7.43;1.42;;;11.30;95.10;;;;;;5036134;28;20087;-61
2021/10/26 04:12:25;;;;;;;8.43;1.55;;;11.30;95.20;;;;;;5037333;28;20675;-62
2021/10/26 04:14:54;;;;;;;2.58;1.35;;;11.30;95.40;;;;;;5048062;28;20099;-61
2021/10/26 04:17:25;;;;;;;5.63;1.58;;;11.30;95.40;;;;;;5036790;28;20126;-61
2021/10/26 04:19:54;;;;;;;9.85;2.20;;;11.30;95.40;;;;;;5036006;28;20099;-61
2021/10/26 04:22:21;;;;;;;6.80;1.50;;;11.30;95.80;;;;;;5042770;28;20049;-61
2021/10/26 04:24:49;;;;;;;8.05;1.63;;;11.00;96.00;;;;;;5040776;28;20495;-61
2021/10/26 04:27:16;;;;;;;8.45;1.48;;;11.10;96.10;;;;;;5038218;28;20045;-60
2021/10/26 04:29:43;;;;;;;5.78;1.52;;;11.10;96.30;;;;;;5041806;28;20053;-61
2021/10/26 04:32:10;;;;;;;4.90;1.50;;;11.10;96.40;;;;;;5043673;28;20113;-61
2021/10/26 04:34:37;;;;;;;8.80;1.60;;;11.10;96.70;;;;;;5039546;28;20046;-61
2021/10/26 04:37:06;;;;;;;7.38;1.85;;;11.10;96.30;;;;;;5042671;28;20037;-61
2021/10/26 04:39:34;;;;;;;3.72;1.38;;;11.20;96.40;;;;;;5041995;28;20145;-61
2021/10/26 04:42:02;;;;;;;7.00;2.10;;;11.20;96.30;;;;;;5050205;28;20048;-62
2021/10/26 04:44:29;;;;;;;6.72;1.60;;;11.20;96.20;;;;;;5044219;28;20052;-61
2021/10/26 04:46:55;;;;;;;3.50;1.38;;;11.20;96.30;;;;;;5047848;28;20186;-61
2021/10/26 04:49:22;;;;;;;6.82;1.90;;;11.30;96.30;;;;;;5044769;28;20106;-61
2021/10/26 04:51:49;;;;;;;4.65;1.35;;;11.30;96.50;;;;;;5049975;28;20127;-60
2021/10/26 04:54:16;;;;;;;7.97;2.00;;;11.30;96.30;;;;;;5052517;28;20072;-61
2021/10/26 04:56:42;;;;;;;6.13;1.98;;;11.30;96.30;;;;;;5041580;28;20076;-60
2021/10/26 04:59:09;;;;;;;5.70;1.63;;;11.30;96.30;;;;;;5043883;28;20140;-61
2021/10/26 05:01:36;;;;;;;5.53;1.70;;;11.40;96.30;;;;;;5046118;28;20053;-60
2021/10/26 05:04:03;;;;;;;5.07;1.90;;;11.30;96.30;;;;;;5049447;28;20488;-61
2021/10/26 05:06:30;;;;;;;6.38;2.60;;;11.40;96.30;;;;;;5044817;28;20096;-61
2021/10/26 05:08:57;;;;;;;8.98;2.70;;;11.40;96.20;;;;;;5048036;28;20045;-61
2021/10/26 05:11:24;;;;;;;8.90;1.63;;;11.40;96.20;;;;;;5045978;28;20041;-60
2021/10/26 05:13:50;;;;;;;5.90;1.60;;;11.40;96.20;;;;;;5049458;28;20568;-61
2021/10/26 05:16:18;;;;;;;6.65;1.77;;;11.40;96.10;;;;;;5048279;28;20041;-62
2021/10/26 05:18:49;;;;;;;7.35;1.90;;;11.50;96.30;;;;;;5048616;28;20049;-61
2021/10/26 05:21:23;;;;;;;8.27;1.52;;;11.40;96.10;;;;;;5048979;28;20073;-61
2021/10/26 05:23:50;;;;;;;8.30;2.92;;;11.40;96.00;;;;;;5046433;28;20057;-61
2021/10/26 05:26:18;;;;;;;5.80;2.05;;;11.40;96.10;;;;;;5037660;28;20161;-61
2021/10/26 05:28:46;;;;;;;8.13;1.55;;;11.40;96.00;;;;;;5037908;28;20443;-61
2021/10/26 05:31:13;;;;;;;6.30;1.73;;;11.30;96.10;;;;;;5040708;28;20560;-62
2021/10/26 05:33:40;;;;;;;7.57;2.03;;;11.30;96.00;;;;;;5050194;28;20053;-61
2021/10/26 05:36:08;;;;;;;5.75;2.20;;;11.30;96.00;;;;;;5038222;28;20044;-61
2021/10/26 05:38:35;;;;;;;3.45;1.52;;;11.30;96.20;;;;;;5047135;28;20049;-61
2021/10/26 05:41:02;;;;;;;5.47;2.20;;;11.30;96.10;;;;;;5043083;28;20069;-61
2021/10/26 05:43:29;;;;;;;5.18;2.03;;;11.30;96.00;;;;;;5049642;28;20142;-61
2021/10/26 05:45:56;;;;;;;6.38;1.90;;;11.30;96.00;;;;;;5043122;28;20099;-62
2021/10/26 05:48:23;;;;;;;7.90;2.03;;;11.30;96.10;;;;;;5048560;28;20124;-61
2021/10/26 05:50:50;;;;;;;8.90;2.10;;;11.20;96.00;;;;;;5043967;28;20572;-60
2021/10/26 05:53:17;;;;;;;4.28;1.70;;;11.10;96.00;;;;;;5046358;28;20080;-61
2021/10/26 05:55:44;;;;;;;4.13;1.92;;;11.10;96.00;;;;;;5047310;28;20511;-63
2021/10/26 05:58:11;;;;;;;3.22;1.50;;;11.10;96.10;;;;;;5046680;28;20140;-61
2021/10/26 06:00:39;;;;;;;3.30;2.20;;;11.10;96.00;;;;;;5044039;28;20136;-61
2021/10/26 06:03:06;;;;;;;7.15;1.70;;;11.10;96.00;;;;;;5048618;28;20048;-61
2021/10/26 06:05:33;;;;;;;5.60;1.38;;;11.10;96.10;;;;;;5040542;28;20103;-61
2021/10/26 06:08:00;;;;;;;5.38;1.30;;;11.00;96.00;;;;;;5042405;28;20076;-62
2021/10/26 06:10:28;;;;;;;6.65;1.70;;;10.90;96.00;;;;;;5046521;28;20048;-62
2021/10/26 06:12:59;;;;;;;7.15;1.08;;;10.90;96.00;;;;;;5047188;28;20080;-60
2021/10/26 06:15:25;;;;;;;6.80;1.40;;;10.90;96.10;;;;;;5047433;28;20045;-62
2021/10/26 06:17:52;;;;;;;6.20;2.05;;;10.90;96.00;;;;;;5039524;28;20049;-61
2021/10/26 06:20:19;;;;;;;3.08;1.17;;;10.90;96.00;;;;;;5047501;28;20559;-61
2021/10/26 06:22:46;;;;;;;2.03;1.10;;;10.80;96.20;;;;;;5049723;28;20053;-60
2021/10/26 06:25:13;;;;;;;3.67;1.00;;;10.80;96.00;;;;;;5036655;28;20853;-61
2021/10/26 06:27:42;;;;;;;3.22;0.88;;;10.80;96.30;;;;;;5039800;28;20106;-60
2021/10/26 06:30:09;;;;;;;3.75;0.82;;;10.80;96.10;;;;;;5039821;28;20057;-61
2021/10/26 06:32:39;;;;;;;2.75;1.05;;;10.80;96.20;;;;;;5042867;28;20531;-61
2021/10/26 06:35:11;;;;;;;1.27;0.70;;;10.70;96.10;;;;;;5037240;28;20049;-60
2021/10/26 06:37:42;;;;;;;1.88;0.60;;;10.70;96.20;;;;;;5044543;28;20061;-60
2021/10/26 06:40:10;;;;;;;5.00;1.10;;;10.70;96.10;;;;;;5042271;28;20504;-61
2021/10/26 06:42:37;;;;;;;4.95;1.02;;;10.70;96.00;;;;;;5046077;28;20102;-61
2021/10/26 06:45:07;;;;;;;3.10;1.17;;;10.70;96.10;;;;;;5047366;28;20150;-60
2021/10/26 06:47:34;;;;;;;5.45;2.85;;;10.70;95.90;;;;;;5041058;28;20148;-60
2021/10/26 06:50:03;;;;;;;2.28;1.35;;;10.60;95.90;;;;;;5041654;28;20065;-60
2021/10/26 06:52:29;;;;;;;3.50;1.40;;;10.60;96.10;;;;;;5041226;28;20538;-59
2021/10/26 06:54:57;;;;;;;5.43;1.90;;;10.70;96.20;;;;;;5044857;28;20041;-59
2021/10/26 06:57:24;;;;;;;2.05;1.13;;;10.70;96.10;;;;;;5042213;28;20099;-61
2021/10/26 06:59:52;;;;;;;5.10;1.40;;;10.60;96.00;;;;;;5042697;28;20488;-60
2021/10/26 07:02:18;;;;;;;4.65;1.48;;;10.60;96.00;;;;;;5040636;28;20099;-59
2021/10/26 07:04:49;;;;;;;4.00;1.63;;;10.50;95.90;;;;;;5042296;28;20482;-60
2021/10/26 07:07:16;;;;;;;4.07;1.50;;;10.60;95.90;;;;;;5041188;28;20207;-59
2021/10/26 07:09:43;;;;;;;6.43;2.33;;;10.60;95.90;;;;;;5045578;28;20091;-61
2021/10/26 07:12:09;;;;;;;7.32;1.85;;;10.50;95.90;;;;;;5044841;28;20072;-61
2021/10/26 07:14:37;;;;;;;3.00;1.70;;;10.50;95.90;;;;;;5045409;28;20508;-61
2021/10/26 07:17:04;;;;;;;4.22;2.00;;;10.50;95.90;;;;;;5048457;28;20488;-61
2021/10/26 07:19:31;;;;;;;6.15;1.70;;;10.60;95.90;;;;;;5043582;28;20603;-61
2021/10/26 07:21:58;;;;;;;4.68;1.83;;;10.60;95.90;;;;;;5042731;28;20041;-60
2021/10/26 07:24:26;;;;;;;7.63;2.10;;;10.60;95.90;;;;;;5043409;28;20095;-61
2021/10/26 07:26:53;;;;;;;5.65;1.77;;;10.60;95.90;;;;;;5039803;28;20115;-61
2021/10/26 07:29:23;;;;;;;4.47;1.90;;;10.70;95.80;;;;;;5038245;28;20519;-61
2021/10/26 07:31:50;;;;;;;4.55;2.45;;;10.70;95.80;;;;;;5039941;28;20137;-61
2021/10/26 07:34:17;;;;;;;4.78;1.63;;;10.80;95.90;;;;;;5044320;28;20065;-60
2021/10/26 07:36:45;;;;;;;8.25;2.35;;;10.70;95.80;;;;;;5045004;28;20132;-61
2021/10/26 07:41:52;;;;;;;3.17;1.90;;;10.80;96.00;;;;;;5045678;28;20701;-61
2021/10/26 07:44:20;;;;;;;6.30;1.98;;;10.80;95.80;;;;;;5043958;28;20052;-61
2021/10/26 07:46:46;;;;;;;2.85;1.77;;;10.80;95.80;;;;;;5042892;28;20077;-61
2021/10/26 07:49:13;;;;;;;8.63;1.73;;;10.90;95.80;;;;;;5047853;28;20045;-60
2021/10/26 07:51:40;;;;;;;4.95;2.42;;;10.90;95.70;;;;;;5049098;28;20079;-61
2021/10/26 07:54:07;;;;;;;8.60;1.73;;;10.90;95.60;;;;;;5042573;28;20071;-60
2021/10/26 07:56:34;;;;;;;7.78;1.50;;;11.00;95.70;;;;;;5044858;28;20076;-60
2021/10/26 07:59:02;;;;;;;7.38;1.75;;;11.10;95.50;;;;;;5048125;28;20048;-61
2021/10/26 08:01:29;;;;;;;6.43;1.75;;;11.10;95.50;;;;;;5049954;28;20134;-60
2021/10/26 08:03:57;;;;;;;5.57;1.52;;;11.10;95.40;;;;;;5046095;28;20056;-60
2021/10/26 08:06:27;;;;;;;11.18;1.55;;;11.20;95.40;;;;;;5046684;28;20183;-60
2021/10/26 08:08:53;;;;;;;5.55;1.45;;;11.30;95.40;;;;;;5045217;28;20045;-60
2021/10/26 08:11:20;;;;;;;5.35;1.27;;;11.30;95.40;;;;;;5044485;28;20080;-60
2021/10/26 08:13:47;;;;;;;4.80;1.20;;;11.30;95.20;;;;;;5051662;28;20565;-61
2021/10/26 08:16:14;;;;;;;5.40;1.67;;;11.50;95.10;;;;;;5034993;28;20079;-60
2021/10/26 08:18:44;;;;;;;8.05;1.58;;;11.50;95.20;;;;;;5055772;28;20045;-62
2021/10/26 08:21:13;;;;;;;5.75;1.30;;;11.50;95.00;;;;;;5057525;28;20060;-60
2021/10/26 08:23:41;;;;;;;8.98;1.77;;;11.60;95.10;;;;;;5030208;28;20056;-60
2021/10/26 08:26:15;;;;;;;2.33;1.40;;;11.60;95.00;;;;;;5046328;28;20080;-60
2021/10/26 08:28:42;;;;;;;16.88;2.17;;;11.60;94.80;;;;;;5050476;28;20044;-61
2021/10/26 08:31:23;;;;;;;4.20;1.50;;;11.60;94.80;;;;;;5045495;28;20045;-60
2021/10/26 08:36:29;;;;;;;7.75;2.15;;;11.70;94.80;;;;;;5046762;28;20053;-61
2021/10/26 08:38:56;;;;;;;4.45;1.95;;;11.80;94.80;;;;;;5047527;28;20045;-61
2021/10/26 08:41:23;;;;;;;4.68;1.80;;;11.80;94.70;;;;;;5045071;28;20045;-60
2021/10/26 08:43:51;;;;;;;4.60;1.63;;;11.90;94.60;;;;;;5043979;28;20075;-61
2021/10/26 08:46:18;;;;;;;6.10;1.80;;;12.00;94.40;;;;;;5048909;28;20069;-61
2021/10/26 08:48:48;;;;;;;6.70;1.90;;;12.10;93.90;;;;;;5042929;28;20048;-60
2021/10/26 08:51:15;;;;;;;9.95;1.67;;;12.20;94.30;;;;;;5040645;28;20054;-60
2021/10/26 08:53:44;;;;;;;10.70;1.92;;;12.30;94.10;;;;;;5048239;28;20077;-61
2021/10/26 08:56:11;;;;;;;5.85;1.85;;;12.50;93.80;;;;;;5047901;28;20110;-60
2021/10/26 08:58:38;;;;;;;5.97;1.30;;;12.70;93.80;;;;;;5051366;28;20484;-60
2021/10/26 09:01:09;;;;;;;6.68;1.88;;;12.60;93.70;;;;;;5051210;28;20550;-61
2021/10/26 09:03:37;;;;;;;4.07;1.42;;;12.70;93.30;;;;;;5046443;28;20060;-61
2021/10/26 09:06:05;;;;;;;10.02;1.58;;;12.70;93.40;;;;;;5051013;28;20052;-60
2021/10/26 09:08:32;;;;;;;3.95;1.38;;;12.60;93.30;;;;;;5044050;28;20107;-61
2021/10/26 09:11:16;;;;;;;6.50;2.03;;;12.60;93.40;;;;;;5047100;28;20507;-61
2021/10/26 09:16:50;;;;;;;6.65;2.60;;;12.70;92.60;;;;;;5047466;28;19978;-61
2021/10/26 09:19:19;;;;;;;7.07;3.65;;;12.70;93.40;;;;;;5043455;28;20060;-61
2021/10/26 09:22:00;;;;;;;13.48;2.20;;;12.80;93.50;;;;;;5045814;28;20049;-61
2021/10/26 09:24:28;;;;;;;5.78;1.38;;;12.80;92.80;;;;;;5042524;28;20075;-60
2021/10/26 09:27:00;;;;;;;5.35;1.98;;;12.90;92.80;;;;;;5048234;28;20049;-61
2021/10/26 09:29:27;;;;;;;7.60;3.10;;;12.90;93.20;;;;;;5048293;28;20484;-61
2021/10/26 09:32:07;;;;;;;9.15;1.15;;;12.90;93.00;;;;;;5050130;28;20052;-61
2021/10/26 09:34:45;;;;;;;4.05;1.27;;;12.90;92.80;;;;;;5045198;28;20519;-59
2021/10/26 09:37:12;;;;;;;4.20;1.30;;;13.00;93.10;;;;;;4695375;28;10000105;-60
2021/10/26 09:39:39;;;;;;;7.30;3.13;;;13.00;93.10;;;;;;5045824;28;20076;-60
2021/10/26 09:42:08;;;;;;;5.30;1.95;;;13.00;92.90;;;;;;5040548;28;20053;-60
2021/10/26 09:44:37;;;;;;;4.53;1.23;;;13.10;93.20;;;;;;5044270;28;20123;-61
2021/10/26 09:47:04;;;;;;;7.72;1.95;;;13.10;93.20;;;;;;5041361;28;20696;-60
2021/10/26 09:49:39;;;;;;;8.68;1.55;;;13.20;93.40;;;;;;5046363;28;20764;-60
2021/10/26 09:52:24;;;;;;;6.70;1.92;;;13.30;93.40;;;;;;5045547;28;20063;-61
2021/10/26 09:55:38;;;;;;;7.25;1.90;;;13.40;93.20;;;;;;5043184;28;20080;-62
2021/10/26 09:58:01;;;;;;;8.90;2.03;;;13.50;92.70;;;;;;5046985;28;20381;-61
2021/10/26 10:00:39;;;;;;;12.80;1.88;;;13.60;93.30;;;;;;5045565;28;20228;-61
2021/10/26 10:03:09;;;;;;;10.07;2.08;;;13.70;93.30;;;;;;5047286;28;20107;-61
2021/10/26 10:05:40;;;;;;;16.70;2.90;;;13.80;93.40;;;;;;5034052;28;20107;-61
2021/10/26 10:08:24;;;;;;;15.43;1.90;;;13.90;93.00;;;;;;5045472;28;20098;-60
2021/10/26 10:10:54;;;;;;;8.43;1.98;;;13.80;92.40;;;;;;5041155;28;20084;-62
2021/10/26 10:13:21;;;;;;;11.30;3.05;;;13.90;92.90;;;;;;4697089;28;10001303;-60
2021/10/26 10:15:48;;;;;;;14.05;2.15;;;13.90;92.80;;;;;;5041403;28;20045;-62
2021/10/26 10:18:19;;;;;;;14.43;1.95;;;13.90;93.00;;;;;;5041722;28;20037;-59
2021/10/26 10:20:48;;;;;;;15.90;2.40;;;13.90;92.60;;;;;;5045711;28;20041;-60
2021/10/26 10:23:15;;;;;;;14.18;2.22;;;14.00;92.90;;;;;;5040392;28;20087;-60
2021/10/26 10:25:47;;;;;;;12.50;1.92;;;14.10;93.00;;;;;;5029398;28;20052;-61
2021/10/26 10:28:28;;;;;;;15.50;2.60;;;14.20;92.70;;;;;;5037997;28;20088;-59
2021/10/26 10:31:00;;;;;;;12.45;2.13;;;14.30;92.90;;;;;;5037471;28;20424;-61
2021/10/26 10:33:28;;;;;;;17.75;2.35;;;14.40;92.50;;;;;;5044121;28;20072;-59
2021/10/26 10:35:57;;;;;;;12.52;2.30;;;14.40;92.30;;;;;;5038759;28;20159;-60
2021/10/26 10:38:32;;;;;;;7.88;2.33;;;14.50;92.30;;;;;;5040602;28;20118;-60
2021/10/26 10:41:20;;;;;;;11.73;2.35;;;14.60;91.90;;;;;;5038743;28;20037;-61
2021/10/26 10:43:47;;;;;;;11.02;2.40;;;14.70;92.00;;;;;;5043128;28;20419;-61
2021/10/26 10:46:47;;;;;;;14.93;2.33;;;14.80;92.40;;;;;;5038476;28;20048;-59
2021/10/26 10:49:20;;;;;;;14.82;3.67;;;14.90;91.60;;;;;;5037692;28;20072;-60
2021/10/26 10:52:00;;;;;;;12.70;2.20;;;14.90;91.80;;;;;;5043250;28;20045;-61
2021/10/26 10:54:39;;;;;;;8.07;1.73;;;14.90;91.80;;;;;;5032362;28;20076;-59
2021/10/26 10:57:16;;;;;;;9.68;2.15;;;14.80;91.30;;;;;;5033398;28;20701;-60
2021/10/26 10:59:48;;;;;;;8.98;1.40;;;14.80;91.60;;;;;;5040806;28;20076;-59
2021/10/26 11:02:34;;;;;;;11.25;1.98;;;14.80;92.00;;;;;;5032878;28;20049;-60
2021/10/26 11:05:01;;;;;;;16.02;3.08;;;14.90;92.10;;;;;;5043194;28;20049;-59
2021/10/26 11:07:43;;;;;;;16.40;2.47;;;15.00;91.80;;;;;;5041211;28;20095;-61
2021/10/26 11:10:14;;;;;;;5.07;1.40;;;15.00;92.10;;;;;;5041024;28;20067;-59
2021/10/26 11:12:43;;;;;;;8.00;1.77;;;15.10;92.10;;;;;;5036932;28;20044;-62
2021/10/26 11:15:11;;;;;;;12.07;1.70;;;15.10;91.80;;;;;;5043489;28;20478;-60
2021/10/26 11:17:40;;;;;;;15.38;2.78;;;15.10;91.90;;;;;;5035495;28;20519;-60
2021/10/26 11:20:41;;;;;;;15.80;2.47;;;15.20;92.00;;;;;;5047019;28;20110;-58
2021/10/26 11:23:10;;;;;;;17.10;3.72;;;15.20;91.40;;;;;;5034405;28;20084;-59
2021/10/26 11:25:41;;;;;;;13.35;2.15;;;15.30;91.90;;;;;;5036311;28;20730;-60
2021/10/26 11:28:12;;;;;;;12.65;2.20;;;15.30;91.60;;;;;;5036388;28;20069;-60
2021/10/26 11:30:39;;;;;;;9.88;2.72;;;15.40;91.70;;;;;;5034244;28;20067;-60
2021/10/26 11:33:09;;;;;;;11.70;1.88;;;15.40;91.70;;;;;;5045097;28;20155;-60
2021/10/26 11:35:51;;;;;;;10.65;1.85;;;15.50;91.50;;;;;;5046827;28;20048;-60
2021/10/26 11:38:23;;;;;;;12.85;2.30;;;15.50;91.60;;;;;;5044667;28;20526;-59
2021/10/26 11:41:03;;;;;;;11.30;2.60;;;15.70;91.80;;;;;;5030213;28;20115;-60
2021/10/26 11:43:47;;;;;;;11.07;2.75;;;15.80;91.50;;;;;;5043119;28;20063;-60
2021/10/26 11:46:15;;;;;;;14.07;2.23;;;15.80;90.60;;;;;;5041382;28;20045;-61
2021/10/26 11:48:53;;;;;;;12.82;2.35;;;15.80;91.10;;;;;;5041668;28;20099;-60
2021/10/26 11:51:28;;;;;;;15.07;2.25;;;15.80;91.00;;;;;;5045475;28;20090;-61
2021/10/26 11:53:58;;;;;;;9.95;1.95;;;15.80;91.00;;;;;;5039172;28;20074;-60
2021/10/26 11:56:39;;;;;;;11.60;2.42;;;15.90;91.50;;;;;;5040719;28;20053;-60
2021/10/26 11:59:10;;;;;;;13.60;3.30;;;15.90;90.90;;;;;;5042000;28;20041;-60
2021/10/26 12:01:39;;;;;;;11.10;2.30;;;16.00;91.00;;;;;;5043448;28;20087;-60
2021/10/26 12:04:11;;;;;;;14.07;2.00;;;16.00;90.90;;;;;;5013422;28;20128;-60
2021/10/26 12:06:38;;;;;;;15.02;2.22;;;16.10;91.20;;;;;;5039998;28;20147;-60
2021/10/26 12:09:10;;;;;;;11.85;2.00;;;16.10;90.90;;;;;;5036674;28;20099;-60
2021/10/26 12:11:37;;;;;;;8.98;2.13;;;16.20;90.90;;;;;;5033891;28;20492;-60
2021/10/26 12:14:30;;;;;;;8.30;2.83;;;16.20;90.70;;;;;;5041095;28;20667;-60
2021/10/26 12:17:14;;;;;;;12.80;2.58;;;16.10;90.30;;;;;;5037904;28;20143;-60
2021/10/26 12:19:45;;;;;;;7.07;2.05;;;16.00;90.00;;;;;;5041378;28;20582;-60
2021/10/26 12:22:26;;;;;;;11.90;2.20;;;16.10;90.50;;;;;;4688389;28;9999723;-62
2021/10/26 12:24:56;;;;;;;10.18;1.73;;;16.10;90.70;;;;;;4339522;28;10000384;-61
2021/10/26 12:27:27;;;;;;;12.55;2.95;;;16.20;90.40;;;;;;4674502;28;10000489;-61
2021/10/26 12:29:54;;;;;;;10.75;2.05;;;16.30;90.80;;;;;;5036311;28;20092;-60
2021/10/26 12:32:22;;;;;;;10.55;2.15;;;16.40;90.70;;;;;;5043454;28;20048;-59
2021/10/26 12:34:49;;;;;;;13.95;2.35;;;16.40;90.40;;;;;;5039853;28;20562;-61
2021/10/26 12:37:32;;;;;;;13.43;2.58;;;16.50;90.50;;;;;;5025582;28;20056;-60
2021/10/26 12:40:03;;;;;;;7.80;2.08;;;16.50;90.60;;;;;;5039922;28;20337;-60
2021/10/26 12:42:41;;;;;;;11.25;2.28;;;16.60;90.20;;;;;;5037071;28;20074;-60
2021/10/26 12:45:10;;;;;;;8.88;2.03;;;16.60;90.70;;;;;;5035444;28;20053;-60
2021/10/26 12:48:07;;;;;;;7.47;2.03;;;16.70;90.50;;;;;;5042384;28;20111;-59
2021/10/26 12:50:57;;;;;;;15.35;3.08;;;16.70;89.30;;;;;;5028807;28;20170;-61
2021/10/26 12:53:42;;;;;;;9.35;2.13;;;16.80;89.40;;;;;;5029713;28;20495;-60
2021/10/26 12:56:29;;;;;;;16.08;2.63;;;16.80;89.20;;;;;;5042572;28;20049;-60
2021/10/26 12:59:05;;;;;;;10.45;2.10;;;16.90;89.00;;;;;;5042326;28;20099;-60
2021/10/26 13:01:39;;;;;;;7.50;1.35;;;17.00;88.90;;;;;;5036441;28;20057;-60
2021/10/26 13:04:15;;;;;;;13.55;1.98;;;17.00;88.60;;;;;;5017453;28;20060;-60